Time;durP1;ratioP1;P1;durP2;ratioP2;P2;SDS_P1;SDS_P2;PMS_P1;PMS_P2;Temp;Humidity;BMP_temperature;BMP_pressure;BME280_temperature;BME280_humidity;BME280_pressure;Samples;Min_cycle;Max_cycle;Signal;HPM_P1;HPM_P2
2022/06/14 00:00:55;;;;;;;0.00;0.00;;;10.80;99.90;;;;;;5075305;28;20131;-79
2022/06/14 00:03:20;;;;;;;0.13;0.13;;;10.80;99.90;;;;;;5092245;28;20051;-80
2022/06/14 00:05:47;;;;;;;0.00;0.00;;;10.80;99.90;;;;;;5073928;28;20047;-80
2022/06/14 00:08:13;;;;;;;0.10;0.00;;;10.80;99.90;;;;;;5075106;28;20127;-80
2022/06/14 00:10:39;;;;;;;0.00;0.00;;;10.80;99.90;;;;;;5075017;28;20048;-80
2022/06/14 00:13:05;;;;;;;0.00;0.00;;;10.80;99.90;;;;;;5076245;28;20123;-80
2022/06/14 00:15:31;;;;;;;0.00;0.00;;;10.80;99.90;;;;;;5093841;28;20522;-80
2022/06/14 00:17:57;;;;;;;0.00;0.00;;;10.70;99.90;;;;;;5076593;28;20044;-80
2022/06/14 00:20:22;;;;;;;0.00;0.00;;;10.70;99.90;;;;;;5093553;28;20044;-80
2022/06/14 00:22:48;;;;;;;0.10;0.10;;;10.80;99.90;;;;;;5093526;28;20036;-80
2022/06/14 00:25:23;;;;;;;0.00;0.00;;;10.70;99.90;;;;;;5093388;28;20055;-80
2022/06/14 00:27:48;;;;;;;;;;;10.70;99.90;;;;;;5094387;28;20127;-80
2022/06/14 00:30:14;;;;;;;0.15;0.15;;;10.60;99.90;;;;;;5093445;28;20007;-80
2022/06/14 00:32:40;;;;;;;0.00;0.00;;;10.50;99.90;;;;;;5093296;28;20090;-80
2022/06/14 00:35:06;;;;;;;0.00;0.00;;;10.40;99.90;;;;;;5093536;28;20546;-80
2022/06/14 00:37:31;;;;;;;0.00;0.00;;;10.40;99.90;;;;;;5093258;28;20040;-80
2022/06/14 00:39:57;;;;;;;0.00;0.00;;;10.30;99.90;;;;;;5076360;28;20101;-80
2022/06/14 00:42:23;;;;;;;0.08;0.08;;;10.30;99.90;;;;;;5093222;28;20130;-80
2022/06/14 00:45:11;;;;;;;0.10;0.08;;;10.20;99.90;;;;;;5093345;28;20040;-80
2022/06/14 00:47:45;;;;;;;0.00;0.00;;;10.20;99.90;;;;;;5015024;28;20401;-79
2022/06/14 00:50:33;;;;;;;0.00;0.00;;;10.30;99.90;;;;;;5015325;28;20092;-80
2022/06/14 00:53:09;;;;;;;0.00;0.00;;;10.30;99.90;;;;;;4999113;28;20068;-79
2022/06/14 00:55:46;;;;;;;0.20;0.10;;;10.30;99.90;;;;;;5015311;28;20048;-80
2022/06/14 00:58:19;;;;;;;0.00;0.00;;;10.30;99.90;;;;;;5015696;28;20432;-80
2022/06/14 01:00:55;;;;;;;0.00;0.00;;;10.20;99.90;;;;;;5015505;28;20045;-79
2022/06/14 01:03:25;;;;;;;0.00;0.00;;;10.20;99.90;;;;;;5015867;28;20096;-80
2022/06/14 01:06:05;;;;;;;0.15;0.05;;;10.20;99.90;;;;;;5015255;28;20054;-80
2022/06/14 01:08:37;;;;;;;0.00;0.00;;;10.20;99.90;;;;;;5015211;28;20092;-80
2022/06/14 01:11:06;;;;;;;0.20;0.20;;;10.20;99.90;;;;;;5015073;28;20060;-80
2022/06/14 01:13:33;;;;;;;0.00;0.00;;;10.20;99.90;;;;;;5015820;28;20136;-80
2022/06/14 01:15:59;;;;;;;0.00;0.00;;;10.10;99.90;;;;;;5015416;28;20219;-80
2022/06/14 01:18:29;;;;;;;0.17;0.00;;;10.10;99.90;;;;;;5019188;28;20449;-80
2022/06/14 01:20:54;;;;;;;0.00;0.00;;;10.20;99.90;;;;;;5019330;28;20041;-80
2022/06/14 01:23:20;;;;;;;0.00;0.00;;;10.10;99.90;;;;;;5019316;28;20043;-80
2022/06/14 01:25:51;;;;;;;0.00;0.00;;;10.10;99.90;;;;;;5095529;28;20507;-80
2022/06/14 01:28:20;;;;;;;0.00;0.00;;;10.10;99.90;;;;;;5097434;28;20484;-80
2022/06/14 01:30:51;;;;;;;7.57;0.90;;;10.10;99.90;;;;;;5079877;28;20139;-80
2022/06/14 01:33:19;;;;;;;0.00;0.00;;;10.10;99.90;;;;;;5096654;28;20052;-80
2022/06/14 01:35:56;;;;;;;0.00;0.00;;;10.10;99.90;;;;;;5079736;28;20052;-80
2022/06/14 01:38:22;;;;;;;0.00;0.00;;;10.10;99.90;;;;;;5096413;28;20522;-80
2022/06/14 01:41:05;;;;;;;0.00;0.00;;;10.10;99.90;;;;;;5096651;28;20052;-80
2022/06/14 01:44:08;;;;;;;0.00;0.00;;;10.10;99.90;;;;;;5079747;28;20056;-80
2022/06/14 01:46:52;;;;;;;0.00;0.00;;;10.10;99.90;;;;;;5079464;28;20055;-79
2022/06/14 01:52:32;;;;;;;0.00;0.00;;;10.00;99.90;;;;;;5096344;28;20395;-80
2022/06/14 01:55:05;;;;;;;0.00;0.00;;;10.00;99.90;;;;;;5096107;28;20044;-80
2022/06/14 01:57:40;;;;;;;0.00;0.00;;;10.10;99.90;;;;;;5096566;28;20048;-80
2022/06/14 02:00:22;;;;;;;0.65;0.65;;;10.00;99.90;;;;;;5096368;28;20048;-80
2022/06/14 02:06:05;;;;;;;0.28;0.28;;;10.00;99.90;;;;;;5096774;28;20056;-79
2022/06/14 02:08:36;;;;;;;0.00;0.00;;;10.00;99.90;;;;;;5095911;28;20050;-80
2022/06/14 02:11:14;;;;;;;0.95;0.00;;;10.00;99.90;;;;;;5078738;28;20105;-80
2022/06/14 02:13:43;;;;;;;0.00;0.00;;;10.00;99.90;;;;;;5079008;28;20048;-80
2022/06/14 02:16:24;;;;;;;0.00;0.00;;;10.00;99.90;;;;;;5079308;28;20048;-79
2022/06/14 02:19:05;;;;;;;0.55;0.32;;;10.00;99.90;;;;;;5079419;28;20121;-80
2022/06/14 02:21:44;;;;;;;0.00;0.00;;;10.00;99.90;;;;;;5096103;28;20052;-80
2022/06/14 02:24:21;;;;;;;0.00;0.00;;;10.00;99.90;;;;;;5078307;28;20056;-80
2022/06/14 02:26:54;;;;;;;0.00;0.00;;;9.90;99.90;;;;;;5096304;28;20055;-80
2022/06/14 02:29:41;;;;;;;0.00;0.00;;;9.90;99.90;;;;;;5094545;28;20406;-80
2022/06/14 02:32:10;;;;;;;0.00;0.00;;;9.90;99.90;;;;;;5078804;28;20056;-79
2022/06/14 02:34:49;;;;;;;0.00;0.00;;;9.90;99.90;;;;;;5095584;28;20044;-80
2022/06/14 02:37:37;;;;;;;0.00;0.00;;;9.90;99.90;;;;;;5078747;28;20051;-79
2022/06/14 02:40:11;;;;;;;0.00;0.00;;;9.90;99.90;;;;;;5078744;28;20126;-80
2022/06/14 02:42:54;;;;;;;0.00;0.00;;;9.90;99.90;;;;;;5095634;28;20078;-80
2022/06/14 02:45:23;;;;;;;0.00;0.00;;;9.80;99.90;;;;;;5095767;28;20118;-80
2022/06/14 02:47:56;;;;;;;0.00;0.00;;;9.90;99.90;;;;;;5095095;28;20051;-80
2022/06/14 02:50:33;;;;;;;0.70;0.32;;;9.90;99.90;;;;;;5095503;28;20056;-80
2022/06/14 02:53:19;;;;;;;0.00;0.00;;;9.90;99.90;;;;;;5078330;28;20487;-80
2022/06/14 02:56:10;;;;;;;0.00;0.00;;;9.90;99.90;;;;;;5095523;28;20048;-80
2022/06/14 02:58:50;;;;;;;0.00;0.00;;;9.90;99.90;;;;;;5078207;28;20048;-79
2022/06/14 03:01:31;;;;;;;0.00;0.00;;;9.90;99.90;;;;;;5095106;28;20066;-79
2022/06/14 03:04:07;;;;;;;0.00;0.00;;;9.80;99.90;;;;;;5095249;28;20131;-79
2022/06/14 03:06:40;;;;;;;0.00;0.00;;;9.80;99.90;;;;;;5094960;28;20047;-80
2022/06/14 03:09:14;;;;;;;0.00;0.00;;;9.90;99.90;;;;;;5094762;28;20525;-79
2022/06/14 03:11:59;;;;;;;0.00;0.00;;;9.90;99.90;;;;;;5077906;28;20113;-80
2022/06/14 03:14:52;;;;;;;0.00;0.00;;;9.90;99.90;;;;;;5078453;28;20411;-80
2022/06/14 03:17:33;;;;;;;0.00;0.00;;;9.90;99.90;;;;;;5094936;28;20040;-80
2022/06/14 03:20:20;;;;;;;0.00;0.00;;;9.90;99.90;;;;;;5094656;28;20487;-80
2022/06/14 03:23:13;;;;;;;0.00;0.00;;;9.80;99.90;;;;;;5094945;28;20042;-80
2022/06/14 03:25:57;;;;;;;0.00;0.00;;;9.80;99.90;;;;;;5095015;28;20430;-80
2022/06/14 03:28:30;;;;;;;0.00;0.00;;;9.80;99.90;;;;;;5094427;28;20040;-80
2022/06/14 03:31:10;;;;;;;0.00;0.00;;;9.90;99.90;;;;;;5077423;28;20445;-80
2022/06/14 03:33:38;;;;;;;0.00;0.00;;;9.90;99.90;;;;;;5078051;28;20056;-80
2022/06/14 03:36:06;;;;;;;0.10;0.00;;;9.80;99.90;;;;;;5094334;28;20052;-80
2022/06/14 03:38:55;;;;;;;0.38;0.15;;;9.90;99.90;;;;;;5094174;28;20502;-79
2022/06/14 03:41:24;;;;;;;0.00;0.00;;;9.90;99.90;;;;;;5077912;28;20054;-80
2022/06/14 03:43:51;;;;;;;0.00;0.00;;;9.90;99.90;;;;;;5094048;28;20484;-80
2022/06/14 03:46:20;;;;;;;0.00;0.00;;;9.90;99.90;;;;;;5094225;28;20055;-80
2022/06/14 03:48:54;;;;;;;0.00;0.00;;;9.90;99.90;;;;;;5076405;28;20058;-80
2022/06/14 03:51:27;;;;;;;0.00;0.00;;;10.00;99.90;;;;;;5094353;28;20094;-80
2022/06/14 03:54:02;;;;;;;7.13;0.10;;;10.00;99.90;;;;;;5076520;28;20056;-80
2022/06/14 03:56:30;;;;;;;0.00;0.00;;;10.00;99.90;;;;;;5094257;28;20407;-80
2022/06/14 03:59:19;;;;;;;0.90;0.22;;;10.00;99.90;;;;;;5094280;28;20051;-80
2022/06/14 04:02:01;;;;;;;0.00;0.00;;;10.10;99.90;;;;;;5077133;28;20054;-80
2022/06/14 04:04:52;;;;;;;0.00;0.00;;;10.10;99.90;;;;;;5093695;28;20044;-80
2022/06/14 04:07:36;;;;;;;0.17;0.15;;;10.20;99.90;;;;;;5093484;28;20551;-80
2022/06/14 04:10:16;;;;;;;0.00;0.00;;;10.20;99.90;;;;;;5093480;28;20059;-80
2022/06/14 04:12:56;;;;;;;0.10;0.10;;;10.20;99.90;;;;;;5093973;28;20048;-80
2022/06/14 04:15:44;;;;;;;0.00;0.00;;;10.30;99.90;;;;;;5077020;28;20051;-80
2022/06/14 04:18:38;;;;;;;0.00;0.00;;;10.30;99.90;;;;;;5076225;28;20060;-80
2022/06/14 04:21:32;;;;;;;0.03;0.00;;;10.40;99.90;;;;;;5076853;28;20052;-80
2022/06/14 04:24:16;;;;;;;0.00;0.00;;;10.40;99.90;;;;;;5093918;28;20131;-80
2022/06/14 04:26:48;;;;;;;0.00;0.00;;;10.40;99.90;;;;;;5093660;28;20043;-80
2022/06/14 04:29:38;;;;;;;0.00;0.00;;;10.40;99.90;;;;;;5075557;28;20491;-80
2022/06/14 04:32:23;;;;;;;0.00;0.00;;;10.50;99.90;;;;;;5077006;28;20043;-80
2022/06/14 04:34:54;;;;;;;0.47;0.20;;;10.40;99.90;;;;;;5075551;28;20060;-80
2022/06/14 04:37:32;;;;;;;0.00;0.00;;;10.50;99.90;;;;;;5076500;28;20094;-80
2022/06/14 04:40:04;;;;;;;0.00;0.00;;;10.50;99.90;;;;;;5076604;28;20093;-80
2022/06/14 04:42:54;;;;;;;0.00;0.00;;;10.60;99.90;;;;;;5093239;28;20047;-80
2022/06/14 04:45:45;;;;;;;0.00;0.00;;;10.60;99.90;;;;;;5076565;28;20052;-80
2022/06/14 04:48:17;;;;;;;0.00;0.00;;;10.60;99.90;;;;;;5092598;28;20509;-80
2022/06/14 04:50:55;;;;;;;0.00;0.00;;;10.70;99.90;;;;;;5092785;28;20426;-80
2022/06/14 04:53:27;;;;;;;0.32;0.20;;;10.70;99.90;;;;;;5075651;28;20052;-80
2022/06/14 04:56:13;;;;;;;0.00;0.00;;;10.80;99.90;;;;;;5076259;28;20040;-79
2022/06/14 04:58:45;;;;;;;0.08;0.05;;;10.90;99.90;;;;;;5093135;28;20052;-80
2022/06/14 05:01:36;;;;;;;0.00;0.00;;;10.90;99.90;;;;;;5075372;28;20522;-80
2022/06/14 05:04:14;;;;;;;0.00;0.00;;;11.00;99.90;;;;;;5076288;28;20076;-80
2022/06/14 05:06:48;;;;;;;0.00;0.00;;;11.00;99.90;;;;;;5075936;28;20056;-80
2022/06/14 05:09:16;;;;;;;0.00;0.00;;;11.00;99.90;;;;;;5076273;28;20488;-80
2022/06/14 05:11:49;;;;;;;0.10;0.10;;;11.10;99.90;;;;;;5092414;28;20067;-79
2022/06/14 05:14:34;;;;;;;0.43;0.35;;;11.10;99.90;;;;;;5093025;28;20048;-80
2022/06/14 05:17:28;;;;;;;0.00;0.00;;;11.20;99.90;;;;;;5076099;28;20044;-79
2022/06/14 05:20:04;;;;;;;0.00;0.00;;;11.20;99.90;;;;;;5092757;28;20044;-79
2022/06/14 05:22:59;;;;;;;0.00;0.00;;;11.30;99.90;;;;;;5092838;28;20054;-80
2022/06/14 05:25:32;;;;;;;0.13;0.10;;;11.50;99.90;;;;;;5014891;28;20054;-80
2022/06/14 05:28:02;;;;;;;0.32;0.15;;;11.40;99.90;;;;;;5014788;28;20053;-80
2022/06/14 05:30:53;;;;;;;0.00;0.00;;;11.50;99.90;;;;;;5014878;28;20541;-79
2022/06/14 05:33:52;;;;;;;0.00;0.00;;;11.60;99.90;;;;;;4998981;28;20490;-80
2022/06/14 05:36:26;;;;;;;0.00;0.00;;;11.60;99.90;;;;;;5015198;28;20379;-80
2022/06/14 05:39:00;;;;;;;0.00;0.00;;;11.70;99.90;;;;;;5015181;28;20081;-80
2022/06/14 05:41:40;;;;;;;0.00;0.00;;;11.80;99.90;;;;;;5015325;28;20056;-80
2022/06/14 05:44:31;;;;;;;0.98;0.52;;;12.00;99.90;;;;;;4998536;28;20147;-80
2022/06/14 05:47:02;;;;;;;0.00;0.00;;;12.40;99.90;;;;;;5031152;28;20053;-80
2022/06/14 05:49:35;;;;;;;0.00;0.00;;;12.90;99.90;;;;;;5014883;28;20046;-80
2022/06/14 05:52:26;;;;;;;0.20;0.15;;;13.10;99.90;;;;;;4998812;28;20140;-80
2022/06/14 05:55:05;;;;;;;0.00;0.00;;;13.20;99.90;;;;;;5031414;28;20083;-80
2022/06/14 05:57:47;;;;;;;0.00;0.00;;;13.10;99.90;;;;;;4998739;28;20099;-80
2022/06/14 06:00:53;;;;;;;0.00;0.00;;;13.10;99.90;;;;;;4998710;28;20106;-80
2022/06/14 06:03:37;;;;;;;0.00;0.00;;;13.00;99.90;;;;;;5081874;28;20576;-79
2022/06/14 06:06:08;;;;;;;0.00;0.00;;;12.90;99.90;;;;;;5059557;28;20048;-80
2022/06/14 06:08:45;;;;;;;0.00;0.00;;;12.80;99.90;;;;;;5059132;28;20045;-80
2022/06/14 06:11:16;;;;;;;0.00;0.00;;;12.80;99.90;;;;;;5059000;28;20048;-80
2022/06/14 06:14:12;;;;;;;0.00;0.00;;;12.80;99.90;;;;;;5076465;28;20373;-80
2022/06/14 06:19:32;;;;;;;0.00;0.00;;;13.10;99.90;;;;;;5018186;28;20125;-80
2022/06/14 06:22:14;;;;;;;0.00;0.00;;;13.30;99.90;;;;;;5001925;28;20062;-80
2022/06/14 06:24:51;;;;;;;0.08;0.00;;;13.30;99.90;;;;;;5018185;28;20045;-80
2022/06/14 06:27:20;;;;;;;0.63;0.08;;;13.40;99.90;;;;;;5001837;28;20118;-80
2022/06/14 06:29:52;;;;;;;0.00;0.00;;;13.40;99.90;;;;;;5001543;28;20088;-80
2022/06/14 06:32:19;;;;;;;2.35;0.47;;;13.50;99.90;;;;;;5018162;28;20054;-79
2022/06/14 06:34:46;;;;;;;0.00;0.00;;;13.50;99.90;;;;;;5018409;28;20108;-79
2022/06/14 06:37:29;;;;;;;0.00;0.00;;;13.40;99.90;;;;;;5017849;28;20071;-80
2022/06/14 06:40:17;;;;;;;0.00;0.00;;;13.60;99.90;;;;;;5018182;28;20160;-80
2022/06/14 06:42:52;;;;;;;0.05;0.05;;;13.60;99.90;;;;;;5001976;28;20049;-80
2022/06/14 06:45:23;;;;;;;;;;;13.60;99.90;;;;;;5001711;28;20496;-80
2022/06/14 06:48:09;;;;;;;0.75;0.15;;;13.70;99.90;;;;;;5001172;28;19967;-80
2022/06/14 06:50:42;;;;;;;1.75;0.45;;;13.70;99.90;;;;;;5001044;28;20049;-80
2022/06/14 06:53:12;;;;;;;0.00;0.00;;;13.80;99.90;;;;;;5032765;28;20088;-80
2022/06/14 06:55:59;;;;;;;0.00;0.00;;;13.80;99.90;;;;;;5058287;28;20098;-80
2022/06/14 06:58:30;;;;;;;0.00;0.00;;;13.90;99.90;;;;;;5075199;28;20066;-80
2022/06/14 07:01:00;;;;;;;0.00;0.00;;;13.90;99.90;;;;;;5058362;28;20400;-80
2022/06/14 07:03:43;;;;;;;0.32;0.17;;;13.90;99.90;;;;;;5058615;28;20063;-80
2022/06/14 07:06:25;;;;;;;0.20;0.20;;;14.00;99.90;;;;;;5058593;28;20041;-80
2022/06/14 07:09:06;;;;;;;0.00;0.00;;;14.20;99.90;;;;;;5074724;28;20041;-80
2022/06/14 07:11:44;;;;;;;0.00;0.00;;;14.30;99.90;;;;;;5057148;28;20064;-80
2022/06/14 07:14:23;;;;;;;2.25;0.28;;;14.40;99.90;;;;;;5074636;28;20048;-80
2022/06/14 07:17:01;;;;;;;0.00;0.00;;;14.50;99.90;;;;;;5075150;28;20141;-80
2022/06/14 07:19:33;;;;;;;0.25;0.10;;;14.60;99.90;;;;;;5057905;28;20396;-80
2022/06/14 07:22:11;;;;;;;0.00;0.00;;;14.70;99.90;;;;;;5074370;28;20161;-80
2022/06/14 07:24:59;;;;;;;0.00;0.00;;;14.90;99.90;;;;;;5075095;28;20044;-80
2022/06/14 07:27:31;;;;;;;0.00;0.00;;;14.90;99.90;;;;;;5074551;28;20047;-80
2022/06/14 07:30:02;;;;;;;0.32;0.32;;;15.10;99.90;;;;;;5057536;28;20052;-80
2022/06/14 07:32:37;;;;;;;0.00;0.00;;;15.10;99.90;;;;;;5057487;28;20067;-80
2022/06/14 07:35:03;;;;;;;;;;;15.30;99.90;;;;;;5058190;28;20048;-80
2022/06/14 07:37:41;;;;;;;0.00;0.00;;;15.50;99.90;;;;;;5074247;28;19928;-80
2022/06/14 07:40:27;;;;;;;0.00;0.00;;;15.50;99.90;;;;;;5057423;28;20049;-81
2022/06/14 07:43:17;;;;;;;0.00;0.00;;;15.70;99.90;;;;;;5074226;28;20059;-80
2022/06/14 07:45:49;;;;;;;0.00;0.00;;;15.80;99.90;;;;;;5056932;28;20090;-80
2022/06/14 07:48:36;;;;;;;0.00;0.00;;;15.80;99.90;;;;;;5067594;28;20500;-81
2022/06/14 07:51:25;;;;;;;0.00;0.00;;;15.70;99.90;;;;;;5077482;28;20079;-80
2022/06/14 07:53:55;;;;;;;2.30;0.85;;;15.50;99.90;;;;;;5094044;28;20511;-80
2022/06/14 07:56:30;;;;;;;0.00;0.00;;;15.50;99.90;;;;;;5093957;28;20047;-80
2022/06/14 07:58:58;;;;;;;;;;;15.70;99.90;;;;;;5077631;28;20047;-80
2022/06/14 08:01:38;;;;;;;0.00;0.00;;;16.00;99.90;;;;;;5093876;28;19971;-80
2022/06/14 08:04:34;;;;;;;0.00;0.00;;;16.10;99.90;;;;;;5094630;28;20044;-80
2022/06/14 08:07:12;;;;;;;0.05;0.05;;;16.20;99.90;;;;;;5077327;28;20047;-81
2022/06/14 08:09:43;;;;;;;0.10;0.00;;;16.10;99.90;;;;;;5093433;28;20040;-80
2022/06/14 08:12:53;;;;;;;0.00;0.00;;;16.10;99.90;;;;;;5093711;28;20511;-80
2022/06/14 08:15:30;;;;;;;0.00;0.00;;;16.20;99.90;;;;;;4996480;28;20058;-80
2022/06/14 08:18:17;;;;;;;0.00;0.00;;;16.50;99.90;;;;;;4980134;28;20112;-80
2022/06/14 08:20:55;;;;;;;0.00;0.00;;;16.70;99.90;;;;;;4980290;28;20161;-80
2022/06/14 08:23:32;;;;;;;0.03;0.03;;;17.00;99.90;;;;;;4980164;28;20393;-80
2022/06/14 08:26:07;;;;;;;0.08;0.08;;;17.20;99.90;;;;;;4978505;28;20098;-80
2022/06/14 08:28:43;;;;;;;0.00;0.00;;;17.20;99.90;;;;;;4979461;28;20045;-81
2022/06/14 08:31:36;;;;;;;0.10;0.10;;;17.20;99.90;;;;;;4996160;28;20049;-80
2022/06/14 08:34:17;;;;;;;0.00;0.00;;;17.30;99.90;;;;;;4996287;28;20050;-80
2022/06/14 08:37:12;;;;;;;0.00;0.00;;;17.20;99.90;;;;;;4980018;28;20093;-81
2022/06/14 08:39:42;;;;;;;;;;;17.20;99.90;;;;;;4980404;28;20401;-80
2022/06/14 08:42:19;;;;;;;0.00;0.00;;;17.20;99.90;;;;;;4995900;28;19921;-80
2022/06/14 08:44:58;;;;;;;0.05;0.05;;;17.00;99.90;;;;;;4979031;28;20533;-81
2022/06/14 08:47:37;;;;;;;0.00;0.00;;;16.90;99.90;;;;;;4978669;28;20069;-80
2022/06/14 08:50:25;;;;;;;0.00;0.00;;;16.80;99.90;;;;;;4979318;28;20052;-80
2022/06/14 08:53:09;;;;;;;0.00;0.00;;;16.70;99.90;;;;;;5047770;28;20066;-80
2022/06/14 08:55:56;;;;;;;0.00;0.00;;;16.50;99.90;;;;;;5076185;28;20047;-80
2022/06/14 08:58:24;;;;;;;0.00;0.00;;;16.60;99.90;;;;;;5093476;28;20376;-80
2022/06/14 09:01:02;;;;;;;0.00;0.00;;;16.60;99.90;;;;;;5076288;28;20059;-80
2022/06/14 09:03:43;;;;;;;0.00;0.00;;;16.60;99.90;;;;;;5093274;28;20451;-80
2022/06/14 09:06:46;;;;;;;0.00;0.00;;;16.60;99.90;;;;;;5092966;28;20066;-80
2022/06/14 09:09:35;;;;;;;0.00;0.00;;;16.70;99.90;;;;;;5092840;28;20048;-80
2022/06/14 09:12:19;;;;;;;0.35;0.28;;;16.80;99.90;;;;;;5092782;28;20044;-80
2022/06/14 09:15:20;;;;;;;0.00;0.00;;;16.90;99.90;;;;;;5092853;28;20048;-80
2022/06/14 09:18:03;;;;;;;0.10;0.10;;;17.10;99.90;;;;;;5076788;28;20488;-80
2022/06/14 09:20:55;;;;;;;0.00;0.00;;;17.20;99.90;;;;;;5092823;28;20044;-80
2022/06/14 09:23:35;;;;;;;0.00;0.00;;;17.30;99.90;;;;;;5092978;28;20040;-80
2022/06/14 09:26:41;;;;;;;0.00;0.00;;;17.30;99.90;;;;;;5092934;28;20036;-80
2022/06/14 09:29:44;;;;;;;0.00;0.00;;;17.50;99.90;;;;;;5092510;28;20051;-80
2022/06/14 09:32:31;;;;;;;0.00;0.00;;;17.80;99.90;;;;;;5074964;28;20094;-80
2022/06/14 09:35:34;;;;;;;0.00;0.00;;;18.10;99.90;;;;;;5075803;28;20055;-80
2022/06/14 09:38:41;;;;;;;0.00;0.00;;;18.60;99.90;;;;;;5078140;28;20055;-80
2022/06/14 09:41:30;;;;;;;0.00;0.00;;;19.00;99.90;;;;;;5018880;28;20045;-80
2022/06/14 09:44:22;;;;;;;0.00;0.00;;;19.20;99.90;;;;;;5035969;28;20089;-80
2022/06/14 09:47:00;;;;;;;0.38;0.32;;;19.10;99.90;;;;;;5018824;28;20045;-80
2022/06/14 09:49:42;;;;;;;0.10;0.00;;;18.90;99.30;;;;;;5035175;28;20045;-80
2022/06/14 09:52:44;;;;;;;0.00;0.00;;;18.80;99.90;;;;;;5002444;28;20130;-80
2022/06/14 09:55:39;;;;;;;0.00;0.00;;;18.60;99.90;;;;;;5035119;28;20497;-80
2022/06/14 09:58:24;;;;;;;0.57;0.15;;;18.40;99.90;;;;;;5018938;28;20367;-80
2022/06/14 10:01:01;;;;;;;0.10;0.10;;;18.20;99.90;;;;;;5019179;28;20057;-80
2022/06/14 10:03:41;;;;;;;0.00;0.00;;;18.10;99.90;;;;;;5018997;28;20045;-80
2022/06/14 10:06:44;;;;;;;0.00;0.00;;;18.10;99.90;;;;;;5001508;28;20494;-80
2022/06/14 10:09:28;;;;;;;0.00;0.00;;;18.10;99.90;;;;;;5001922;28;20433;-80
2022/06/14 10:12:29;;;;;;;0.00;0.00;;;18.60;99.90;;;;;;5002294;28;20145;-80
2022/06/14 10:14:55;;;;;;;0.17;0.17;;;19.10;99.90;;;;;;5048856;28;20105;-81
2022/06/14 10:17:57;;;;;;;0.47;0.00;;;19.60;99.10;;;;;;5096258;28;20043;-81
2022/06/14 10:20:41;;;;;;;0.00;0.00;;;19.40;97.10;;;;;;5078581;28;20052;-80
2022/06/14 10:23:13;;;;;;;0.10;0.00;;;19.40;98.80;;;;;;5079042;28;20173;-81
2022/06/14 10:28:53;;;;;;;0.17;0.00;;;19.40;98.70;;;;;;5095875;28;20044;-81
2022/06/14 10:32:07;;;;;;;0.10;0.00;;;19.20;99.00;;;;;;5079073;28;20052;-81
2022/06/14 10:35:00;;;;;;;0.10;0.00;;;18.90;96.90;;;;;;5078404;28;20052;-81
2022/06/14 10:37:47;;;;;;;0.00;0.00;;;18.70;98.60;;;;;;5078794;28;20079;-80
2022/06/14 10:40:20;;;;;;;0.00;0.00;;;18.90;99.90;;;;;;5078729;28;20044;-80
2022/06/14 10:43:08;;;;;;;0.00;0.00;;;19.10;97.10;;;;;;5095897;28;20044;-81
2022/06/14 10:45:41;;;;;;;0.52;0.15;;;19.40;97.40;;;;;;5094626;28;20063;-81
2022/06/14 10:48:29;;;;;;;0.08;0.08;;;19.80;97.10;;;;;;5077916;28;20062;-81
2022/06/14 10:51:03;;;;;;;0.25;0.25;;;19.90;96.30;;;;;;5095080;28;20040;-80
2022/06/14 10:53:42;;;;;;;0.00;0.00;;;19.80;96.20;;;;;;5095057;28;20479;-80
2022/06/14 10:56:45;;;;;;;0.00;0.00;;;19.80;96.20;;;;;;5095377;28;20396;-81
2022/06/14 10:59:29;;;;;;;0.00;0.00;;;19.80;96.60;;;;;;5095293;28;20075;-80
2022/06/14 11:02:21;;;;;;;0.00;0.00;;;19.80;96.20;;;;;;5078457;28;20063;-80
2022/06/14 11:04:53;;;;;;;0.00;0.00;;;19.70;95.80;;;;;;5078352;28;20083;-81
2022/06/14 11:07:25;;;;;;;0.00;0.00;;;19.60;96.20;;;;;;5095007;28;20135;-81
2022/06/14 11:10:03;;;;;;;0.00;0.00;;;19.60;96.90;;;;;;5078106;28;20437;-81
2022/06/14 11:12:45;;;;;;;0.00;0.00;;;19.50;96.60;;;;;;5094905;28;20577;-81
2022/06/14 11:15:24;;;;;;;0.00;0.00;;;19.50;95.70;;;;;;5078148;28;20048;-81
2022/06/14 11:17:56;;;;;;;0.00;0.00;;;19.50;95.40;;;;;;5078052;28;20059;-81
2022/06/14 11:20:33;;;;;;;0.00;0.00;;;19.60;95.30;;;;;;5077675;28;20083;-80
2022/06/14 11:23:10;;;;;;;0.00;0.00;;;19.90;96.50;;;;;;5094875;28;20074;-80
2022/06/14 11:25:52;;;;;;;0.03;0.00;;;20.20;97.70;;;;;;5077871;28;20044;-80
2022/06/14 11:28:37;;;;;;;0.10;0.00;;;20.40;97.00;;;;;;5094826;28;20121;-81
2022/06/14 11:31:15;;;;;;;0.00;0.00;;;20.40;95.80;;;;;;5095011;28;20456;-81
2022/06/14 11:34:18;;;;;;;0.00;0.00;;;20.30;96.00;;;;;;5094600;28;20090;-80
2022/06/14 11:37:03;;;;;;;0.30;0.25;;;20.30;95.70;;;;;;5094276;28;20052;-80
2022/06/14 11:39:40;;;;;;;0.00;0.00;;;20.20;96.10;;;;;;5077556;28;20044;-80
2022/06/14 11:42:22;;;;;;;0.00;0.00;;;20.10;95.20;;;;;;5094137;28;20051;-80
2022/06/14 11:45:09;;;;;;;0.00;0.00;;;20.10;95.40;;;;;;5077002;28;20063;-80
2022/06/14 11:48:05;;;;;;;0.00;0.00;;;20.00;95.10;;;;;;5094619;28;20417;-80
2022/06/14 11:50:37;;;;;;;0.00;0.00;;;19.80;94.80;;;;;;5094225;28;20048;-80
2022/06/14 11:53:44;;;;;;;0.20;0.20;;;19.60;94.50;;;;;;5093827;28;20055;-80
2022/06/14 11:56:24;;;;;;;0.00;0.00;;;19.60;95.70;;;;;;5094216;28;20117;-80
2022/06/14 11:59:34;;;;;;;0.32;0.32;;;19.70;96.60;;;;;;5077259;28;20090;-80
2022/06/14 12:02:12;;;;;;;0.73;0.13;;;19.60;94.70;;;;;;5094155;28;20067;-80
2022/06/14 12:05:03;;;;;;;0.10;0.10;;;19.60;94.00;;;;;;5076614;28;20491;-80
2022/06/14 12:07:39;;;;;;;0.00;0.00;;;19.70;96.00;;;;;;5076938;28;20134;-80
2022/06/14 12:10:36;;;;;;;0.05;0.00;;;20.10;96.80;;;;;;5077086;28;20435;-80
2022/06/14 12:13:24;;;;;;;0.00;0.00;;;20.60;97.70;;;;;;5076944;28;20078;-80
2022/06/14 12:15:55;;;;;;;0.00;0.00;;;21.10;93.70;;;;;;5076756;28;20081;-80
2022/06/14 12:18:24;;;;;;;0.00;0.00;;;21.40;94.90;;;;;;5094339;28;20048;-80
2022/06/14 12:21:01;;;;;;;0.00;0.00;;;21.80;95.10;;;;;;5076835;28;20052;-80
2022/06/14 12:23:52;;;;;;;0.00;0.00;;;22.10;92.90;;;;;;5093516;28;20055;-80
2022/06/14 12:26:39;;;;;;;0.10;0.10;;;22.30;91.50;;;;;;5093509;28;20056;-80
2022/06/14 12:29:21;;;;;;;0.00;0.00;;;22.40;90.20;;;;;;5093574;28;20089;-80
2022/06/14 12:32:02;;;;;;;0.00;0.00;;;22.40;87.50;;;;;;5076942;28;20044;-80
2022/06/14 12:34:50;;;;;;;4.28;0.35;;;22.30;88.50;;;;;;5093342;28;20048;-80
2022/06/14 12:37:48;;;;;;;0.00;0.00;;;22.30;90.60;;;;;;5076860;28;20110;-80
2022/06/14 12:40:26;;;;;;;0.00;0.00;;;22.00;84.00;;;;;;5093425;28;20147;-80
2022/06/14 12:43:10;;;;;;;0.00;0.00;;;21.70;86.40;;;;;;5109975;28;20492;-80
2022/06/14 12:45:41;;;;;;;0.00;0.00;;;21.40;89.90;;;;;;5076223;28;20118;-80
2022/06/14 12:48:42;;;;;;;0.00;0.00;;;21.10;85.70;;;;;;5092965;28;20376;-80
2022/06/14 12:51:19;;;;;;;0.00;0.00;;;20.90;90.10;;;;;;5031840;28;20079;-80
2022/06/14 12:53:56;;;;;;;0.13;0.00;;;20.80;89.40;;;;;;5015723;28;20049;-80
2022/06/14 12:56:47;;;;;;;1.15;0.35;;;20.60;90.50;;;;;;5015763;28;20053;-80
2022/06/14 12:59:36;;;;;;;0.00;0.00;;;20.40;90.50;;;;;;4999195;28;20041;-80
2022/06/14 13:02:35;;;;;;;0.00;0.00;;;20.20;92.00;;;;;;4979372;28;20116;-80
2022/06/14 13:05:10;;;;;;;0.00;0.00;;;20.10;90.10;;;;;;4979624;28;20050;-80
2022/06/14 13:07:50;;;;;;;0.00;0.00;;;20.00;91.00;;;;;;4979475;28;20120;-80
2022/06/14 13:10:39;;;;;;;0.55;0.22;;;20.10;90.60;;;;;;4979184;28;20054;-79
2022/06/14 13:13:40;;;;;;;0.00;0.00;;;20.50;90.90;;;;;;4995012;28;20490;-79
2022/06/14 13:16:49;;;;;;;0.00;0.00;;;21.10;90.50;;;;;;4994514;28;20060;-79
2022/06/14 13:19:41;;;;;;;0.00;0.00;;;21.50;87.30;;;;;;4921403;29;20047;-80
2022/06/14 13:22:06;;;;;;;0.00;0.00;;;22.00;88.00;;;;;;4937689;29;20097;-80
2022/06/14 13:24:54;;;;;;;0.00;0.00;;;22.20;86.50;;;;;;4921702;29;20090;-79
2022/06/14 13:27:41;;;;;;;0.00;0.00;;;22.30;85.20;;;;;;4946280;28;20054;-79
2022/06/14 13:30:43;;;;;;;0.00;0.00;;;22.30;80.10;;;;;;4956226;28;20149;-80
2022/06/14 13:33:18;;;;;;;0.65;0.28;;;22.50;81.70;;;;;;4941118;28;20081;-80
2022/06/14 13:36:04;;;;;;;0.00;0.00;;;22.80;83.50;;;;;;4956897;28;20051;-80
2022/06/14 13:38:35;;;;;;;0.00;0.00;;;23.00;79.00;;;;;;4972340;28;20067;-80
2022/06/14 13:41:00;;;;;;;0.00;0.00;;;23.20;83.70;;;;;;5015105;28;20110;-80
2022/06/14 13:43:29;;;;;;;0.00;0.00;;;23.20;78.50;;;;;;5015015;28;20520;-80
2022/06/14 13:46:03;;;;;;;0.00;0.00;;;23.10;79.20;;;;;;5014727;28;20432;-80
2022/06/14 13:48:49;;;;;;;0.00;0.00;;;22.80;76.50;;;;;;5014569;28;20532;-79
2022/06/14 13:51:33;;;;;;;0.00;0.00;;;22.90;77.30;;;;;;5014805;28;20051;-80
2022/06/14 13:54:04;;;;;;;0.00;0.00;;;23.00;80.50;;;;;;5076969;28;20101;-80
2022/06/14 13:57:11;;;;;;;0.00;0.00;;;23.00;76.50;;;;;;5075899;28;20055;-80
2022/06/14 13:59:43;;;;;;;0.00;0.00;;;23.20;78.70;;;;;;5034536;28;20115;-80
2022/06/14 14:02:11;;;;;;;0.00;0.00;;;23.20;78.20;;;;;;5034317;28;20057;-80
2022/06/14 14:05:15;;;;;;;0.00;0.00;;;22.90;76.40;;;;;;5017619;28;20135;-80
2022/06/14 14:07:59;;;;;;;0.00;0.00;;;22.70;76.10;;;;;;4972443;28;20145;-80